createdAt,value
2022-12-29T00:00:37.088Z,11.38
2022-12-29T00:05:38.501Z,12.95
2022-12-29T00:10:39.951Z,11.50
2022-12-29T00:15:41.717Z,12.32
2022-12-29T00:21:02.000Z,16.15
2022-12-29T00:31:55.568Z,12.52
2022-12-29T00:36:57.442Z,11.93
2022-12-29T00:42:38.965Z,11.50
2022-12-29T00:47:40.394Z,13.10
2022-12-29T00:52:41.815Z,12.90
2022-12-29T00:57:43.261Z,11.45
2022-12-29T01:02:44.791Z,11.38
2022-12-29T01:07:46.351Z,9.73
2022-12-29T01:12:48.449Z,9.80
2022-12-29T01:17:49.924Z,9.70
2022-12-29T01:22:51.363Z,8.95
2022-12-29T01:27:52.803Z,10.52
2022-12-29T01:32:54.303Z,8.75
2022-12-29T01:37:55.733Z,8.68
2022-12-29T01:42:57.273Z,9.75
2022-12-29T01:48:10.162Z,8.50
2022-12-29T01:53:30.623Z,8.32
2022-12-29T01:58:33.969Z,8.50
2022-12-29T02:03:36.198Z,8.75
2022-12-29T02:08:38.963Z,9.32
2022-12-29T02:13:40.468Z,7.40
2022-12-29T02:18:51.108Z,8.45
2022-12-29T02:23:58.490Z,6.97
2022-12-29T02:29:20.379Z,10.60
2022-12-29T02:34:27.645Z,10.65
2022-12-29T02:39:47.340Z,12.10
2022-12-29T02:45:03.511Z,8.50
2022-12-29T02:50:18.555Z,8.30
2022-12-29T02:55:20.018Z,9.98
2022-12-29T03:00:21.527Z,6.22
2022-12-29T03:05:43.259Z,7.68
2022-12-29T03:11:03.826Z,11.18
2022-12-29T03:16:12.260Z,5.03
2022-12-29T03:21:45.659Z,10.45
2022-12-29T03:26:48.846Z,11.80
2022-12-29T03:31:52.043Z,10.35
2022-12-29T03:36:56.195Z,14.15
2022-12-29T03:42:00.146Z,14.85
2022-12-29T03:47:01.668Z,15.70
2022-12-29T03:52:03.271Z,18.25
2022-12-29T03:57:04.769Z,11.77
2022-12-29T04:02:06.326Z,17.98
2022-12-29T04:07:07.913Z,16.40
2022-12-29T04:12:09.353Z,19.45
2022-12-29T04:17:10.790Z,19.73
2022-12-29T04:22:12.859Z,21.77
2022-12-29T04:27:14.345Z,23.55
2022-12-29T04:32:16.096Z,18.55
2022-12-29T04:37:17.885Z,16.85
2022-12-29T04:42:19.295Z,17.38
2022-12-29T04:47:20.698Z,14.77
2022-12-29T04:52:22.129Z,16.90
2022-12-29T04:57:23.593Z,13.00
2022-12-29T05:02:25.284Z,14.82
2022-12-29T05:07:26.928Z,15.18
2022-12-29T05:12:32.387Z,12.45
2022-12-29T05:17:34.323Z,17.92
2022-12-29T05:22:35.794Z,19.40
2022-12-29T05:27:37.386Z,26.00
2022-12-29T05:32:38.905Z,22.52
2022-12-29T05:37:40.386Z,24.35
2022-12-29T05:42:41.781Z,22.83
2022-12-29T05:47:43.179Z,24.25
2022-12-29T05:52:44.697Z,23.92
2022-12-29T05:57:46.181Z,28.48
2022-12-29T06:02:48.060Z,18.85
2022-12-29T06:07:49.612Z,22.70
2022-12-29T06:12:51.112Z,22.05
2022-12-29T06:17:52.517Z,31.65
2022-12-29T06:22:54.052Z,23.90
2022-12-29T06:27:55.574Z,21.48
2022-12-29T06:32:57.055Z,21.02
2022-12-29T06:37:58.493Z,26.52
2022-12-29T06:43:00.532Z,22.02
2022-12-29T06:48:01.939Z,25.42
2022-12-29T06:53:03.662Z,25.83
2022-12-29T06:58:05.262Z,27.10
2022-12-29T07:03:07.169Z,18.65
2022-12-29T07:08:08.899Z,22.88
2022-12-29T07:13:10.346Z,24.75
2022-12-29T07:18:11.801Z,27.38
2022-12-29T07:23:13.310Z,18.58
2022-12-29T07:28:14.742Z,29.48
2022-12-29T07:33:16.318Z,33.80
2022-12-29T07:38:17.838Z,25.45
2022-12-29T07:43:19.254Z,31.52
2022-12-29T07:48:20.874Z,22.23
2022-12-29T07:53:22.371Z,27.00
2022-12-29T07:58:23.862Z,26.70
2022-12-29T08:03:26.898Z,26.67
2022-12-29T08:08:28.465Z,20.70
2022-12-29T08:13:29.992Z,31.73
2022-12-29T08:18:31.859Z,28.73
2022-12-29T08:23:33.804Z,26.75
2022-12-29T08:28:35.218Z,25.23
2022-12-29T08:33:36.718Z,26.70
2022-12-29T08:38:38.160Z,24.63
2022-12-29T08:43:39.605Z,26.42
2022-12-29T08:48:41.066Z,21.55
2022-12-29T08:53:42.525Z,26.58
2022-12-29T08:58:43.923Z,22.75
2022-12-29T09:09:07.248Z,22.27
2022-12-29T09:14:08.767Z,16.02
2022-12-29T09:19:10.484Z,21.10
2022-12-29T09:24:11.960Z,22.10
2022-12-29T09:29:13.408Z,26.95
2022-12-29T09:34:14.909Z,18.17
2022-12-29T09:39:16.450Z,21.05
2022-12-29T09:44:17.849Z,28.88
2022-12-29T09:49:26.105Z,25.35
2022-12-29T09:54:36.744Z,23.95
2022-12-29T09:59:42.688Z,21.77
2022-12-29T10:04:44.252Z,27.25
2022-12-29T10:10:02.436Z,38.78
2022-12-29T10:15:03.821Z,34.17
2022-12-29T10:20:08.084Z,33.80
2022-12-29T10:25:13.524Z,47.08
2022-12-29T10:30:15.667Z,32.10
2022-12-29T10:35:19.516Z,43.60
2022-12-29T10:40:33.961Z,36.63
2022-12-29T10:45:35.746Z,32.40
2022-12-29T10:50:37.507Z,29.50
2022-12-29T10:55:42.964Z,21.60
2022-12-29T11:00:48.971Z,29.08
2022-12-29T11:05:55.755Z,26.10
2022-12-29T11:11:01.831Z,19.10
2022-12-29T11:16:04.095Z,27.00
2022-12-29T11:21:07.225Z,24.33
2022-12-29T11:26:11.774Z,15.82
2022-12-29T11:31:17.390Z,20.33
2022-12-29T11:36:21.335Z,19.63
2022-12-29T11:41:27.124Z,22.88
2022-12-29T11:46:30.372Z,12.50
2022-12-29T11:51:40.411Z,19.27
2022-12-29T11:56:43.544Z,17.63
2022-12-29T12:02:03.739Z,18.92
2022-12-29T12:07:05.285Z,18.30
2022-12-29T12:12:09.751Z,17.88
2022-12-29T12:17:17.356Z,15.70
2022-12-29T12:22:23.049Z,15.32
2022-12-29T12:27:30.256Z,11.73
2022-12-29T12:32:47.500Z,19.33
2022-12-29T12:38:04.403Z,19.15
2022-12-29T12:43:07.160Z,18.63
2022-12-29T12:48:27.188Z,18.05
2022-12-29T12:53:31.855Z,17.90
2022-12-29T12:58:53.614Z,22.98
2022-12-29T13:04:21.588Z,14.90
2022-12-29T13:09:32.088Z,17.58
2022-12-29T13:14:45.863Z,17.42
2022-12-29T13:20:03.522Z,20.35
2022-12-29T13:25:10.565Z,13.43
2022-12-29T13:30:16.873Z,20.38
2022-12-29T13:35:38.642Z,20.58
2022-12-29T13:40:42.826Z,11.15
2022-12-29T13:45:45.249Z,25.98
2022-12-29T13:50:50.989Z,22.67
2022-12-29T13:56:10.516Z,21.73
2022-12-29T14:01:22.807Z,17.10
2022-12-29T14:06:36.392Z,18.65
2022-12-29T14:11:39.404Z,14.63
2022-12-29T14:16:43.421Z,19.35
2022-12-29T14:21:52.500Z,18.27
2022-12-29T14:26:53.903Z,16.57
2022-12-29T14:31:55.408Z,16.05
2022-12-29T14:36:58.432Z,20.70
2022-12-29T14:42:05.386Z,16.80
2022-12-29T14:47:08.241Z,11.35
2022-12-29T14:52:24.411Z,19.95
2022-12-29T14:57:28.836Z,14.32
2022-12-29T15:02:34.105Z,16.38
2022-12-29T15:07:35.909Z,17.60
2022-12-29T15:12:43.282Z,24.73
2022-12-29T15:17:44.700Z,18.48
2022-12-29T15:22:47.682Z,13.82
2022-12-29T15:27:50.792Z,21.23
2022-12-29T15:32:52.858Z,19.90
2022-12-29T15:37:54.314Z,19.33
2022-12-29T15:42:58.474Z,18.05
2022-12-29T15:48:00.147Z,17.05
2022-12-29T15:53:02.787Z,16.55
2022-12-29T15:58:05.613Z,16.80
2022-12-29T16:03:07.645Z,19.95
2022-12-29T16:08:38.283Z,23.90
2022-12-29T16:18:42.065Z,23.40
2022-12-29T16:23:45.206Z,27.95
2022-12-29T16:28:48.984Z,24.13
2022-12-29T16:33:54.479Z,22.73
2022-12-29T16:39:14.569Z,21.55
2022-12-29T16:44:21.207Z,30.00
2022-12-29T16:49:22.658Z,17.60
2022-12-29T16:54:42.758Z,17.58
2022-12-29T16:59:44.291Z,19.25
2022-12-29T17:04:49.492Z,19.15
2022-12-29T17:09:51.443Z,23.05
2022-12-29T17:14:56.387Z,21.35
2022-12-29T17:20:00.000Z,23.80
2022-12-29T17:25:02.663Z,21.65
2022-12-29T17:30:06.394Z,22.70
2022-12-29T17:35:13.619Z,24.77
2022-12-29T17:40:16.831Z,23.17
2022-12-29T17:45:27.438Z,17.88
2022-12-29T17:50:29.948Z,24.95
2022-12-29T17:55:37.710Z,21.33
2022-12-29T18:00:40.319Z,16.75
2022-12-29T18:05:42.153Z,24.75
2022-12-29T18:10:43.909Z,20.50
2022-12-29T18:15:45.380Z,22.63
2022-12-29T18:20:47.649Z,23.83
2022-12-29T18:26:05.774Z,30.02
2022-12-29T18:31:18.228Z,19.95
2022-12-29T18:36:19.800Z,22.60
2022-12-29T18:41:22.651Z,22.88
2022-12-29T18:46:24.222Z,22.48
2022-12-29T18:51:26.738Z,27.42
2022-12-29T18:56:28.178Z,25.08
2022-12-29T19:01:31.091Z,29.70
2022-12-29T19:06:32.761Z,34.65
2022-12-29T19:11:34.247Z,28.02
2022-12-29T19:16:35.851Z,24.73
2022-12-29T19:21:37.651Z,30.63
2022-12-29T19:26:40.112Z,27.50
2022-12-29T19:31:41.833Z,18.42
2022-12-29T19:36:44.108Z,24.13
2022-12-29T19:41:45.550Z,32.85
2022-12-29T19:46:47.031Z,23.27
2022-12-29T19:51:48.593Z,25.55
2022-12-29T19:56:50.060Z,24.50
2022-12-29T20:01:51.879Z,21.33
2022-12-29T20:06:53.532Z,24.33
2022-12-29T20:11:55.030Z,21.42
2022-12-29T20:17:10.624Z,22.42
2022-12-29T20:22:12.985Z,26.23
2022-12-29T20:27:14.564Z,32.17
2022-12-29T20:32:17.496Z,18.70
2022-12-29T20:37:18.988Z,22.85
2022-12-29T20:42:21.179Z,31.85
2022-12-29T20:47:22.625Z,24.00
2022-12-29T20:52:24.085Z,24.77
2022-12-29T20:57:25.564Z,19.58
2022-12-29T21:02:27.046Z,27.17
2022-12-29T21:07:28.522Z,26.35
2022-12-29T21:12:29.961Z,26.08
2022-12-29T21:17:31.976Z,25.52
2022-12-29T21:22:33.522Z,24.52
2022-12-29T21:27:34.969Z,24.15
2022-12-29T21:32:36.395Z,23.67
2022-12-29T21:37:37.832Z,22.17
2022-12-29T21:42:39.268Z,18.15
2022-12-29T21:47:59.405Z,16.60
2022-12-29T21:53:00.871Z,21.30
2022-12-29T21:58:20.864Z,20.92
2022-12-29T22:03:41.004Z,16.10
2022-12-29T22:14:02.810Z,16.30
2022-12-29T22:19:04.375Z,20.05
2022-12-29T22:24:06.029Z,21.00
2022-12-29T22:29:07.514Z,19.63
2022-12-29T22:34:10.917Z,16.50
2022-12-29T22:39:12.348Z,14.65
2022-12-29T22:44:13.778Z,21.75
2022-12-29T22:49:15.232Z,17.75
2022-12-29T22:54:18.202Z,23.52
2022-12-29T22:59:38.374Z,22.38
2022-12-29T23:15:09.022Z,23.70
2022-12-29T23:20:10.626Z,16.83
2022-12-29T23:25:12.088Z,17.88
2022-12-29T23:35:38.898Z,18.35
2022-12-29T23:40:40.328Z,16.63
2022-12-29T23:45:46.076Z,19.85
2022-12-29T23:50:51.060Z,21.08
2022-12-29T23:55:53.762Z,26.42
